sensor_id;sensor_type;location;lat;lon;timestamp;P1;durP1;ratioP1;P2;durP2;ratioP2
60726;SDS011;46577;49.004;12.120;2023-04-08T00:00:46;10.77;;;7.40;;
60726;SDS011;46577;49.004;12.120;2023-04-08T00:03:12;16.20;;;8.53;;
60726;SDS011;46577;49.004;12.120;2023-04-08T00:05:38;13.00;;;8.20;;
60726;SDS011;46577;49.004;12.120;2023-04-08T00:08:04;16.13;;;7.90;;
60726;SDS011;46577;49.004;12.120;2023-04-08T00:10:30;10.63;;;6.80;;
60726;SDS011;46577;49.004;12.120;2023-04-08T00:12:56;13.80;;;8.30;;
60726;SDS011;46577;49.004;12.120;2023-04-08T00:15:21;14.30;;;7.50;;
60726;SDS011;46577;49.004;12.120;2023-04-08T00:17:47;11.67;;;7.40;;
60726;SDS011;46577;49.004;12.120;2023-04-08T00:20:13;13.90;;;7.83;;
60726;SDS011;46577;49.004;12.120;2023-04-08T00:22:38;13.70;;;8.40;;
60726;SDS011;46577;49.004;12.120;2023-04-08T00:25:04;15.20;;;7.80;;
60726;SDS011;46577;49.004;12.120;2023-04-08T00:27:31;11.30;;;7.23;;
60726;SDS011;46577;49.004;12.120;2023-04-08T00:29:57;16.63;;;7.80;;
60726;SDS011;46577;49.004;12.120;2023-04-08T00:32:24;14.00;;;8.23;;
60726;SDS011;46577;49.004;12.120;2023-04-08T00:34:50;12.93;;;8.20;;
60726;SDS011;46577;49.004;12.120;2023-04-08T00:37:16;11.30;;;6.93;;
60726;SDS011;46577;49.004;12.120;2023-04-08T00:39:42;12.83;;;7.50;;
60726;SDS011;46577;49.004;12.120;2023-04-08T00:42:07;13.47;;;8.43;;
60726;SDS011;46577;49.004;12.120;2023-04-08T00:44:33;13.20;;;7.63;;
60726;SDS011;46577;49.004;12.120;2023-04-08T00:46:59;12.27;;;7.23;;
60726;SDS011;46577;49.004;12.120;2023-04-08T00:49:25;12.27;;;7.30;;
60726;SDS011;46577;49.004;12.120;2023-04-08T00:51:51;24.70;;;9.23;;
60726;SDS011;46577;49.004;12.120;2023-04-08T00:54:18;14.40;;;7.47;;
60726;SDS011;46577;49.004;12.120;2023-04-08T00:56:43;11.50;;;7.87;;
60726;SDS011;46577;49.004;12.120;2023-04-08T00:59:09;15.37;;;8.07;;
60726;SDS011;46577;49.004;12.120;2023-04-08T01:06:57;14.03;;;8.27;;
60726;SDS011;46577;49.004;12.120;2023-04-08T01:09:47;15.43;;;8.67;;
60726;SDS011;46577;49.004;12.120;2023-04-08T01:12:24;13.40;;;7.77;;
60726;SDS011;46577;49.004;12.120;2023-04-08T01:14:54;12.37;;;7.80;;
60726;SDS011;46577;49.004;12.120;2023-04-08T01:17:31;12.80;;;7.73;;
60726;SDS011;46577;49.004;12.120;2023-04-08T01:20:01;13.97;;;8.87;;
60726;SDS011;46577;49.004;12.120;2023-04-08T01:25:26;14.73;;;8.30;;
60726;SDS011;46577;49.004;12.120;2023-04-08T01:28:14;13.57;;;8.30;;
60726;SDS011;46577;49.004;12.120;2023-04-08T01:30:42;15.43;;;9.03;;
60726;SDS011;46577;49.004;12.120;2023-04-08T01:33:09;19.60;;;8.70;;
60726;SDS011;46577;49.004;12.120;2023-04-08T01:35:37;32.43;;;8.17;;
60726;SDS011;46577;49.004;12.120;2023-04-08T01:38:04;16.10;;;9.63;;
60726;SDS011;46577;49.004;12.120;2023-04-08T01:40:32;17.93;;;9.60;;
60726;SDS011;46577;49.004;12.120;2023-04-08T01:43:00;12.80;;;7.90;;
60726;SDS011;46577;49.004;12.120;2023-04-08T01:45:28;14.43;;;8.10;;
60726;SDS011;46577;49.004;12.120;2023-04-08T01:47:55;17.67;;;8.60;;
60726;SDS011;46577;49.004;12.120;2023-04-08T01:50:22;13.20;;;7.13;;
60726;SDS011;46577;49.004;12.120;2023-04-08T01:52:49;14.10;;;8.23;;
60726;SDS011;46577;49.004;12.120;2023-04-08T01:55:17;11.60;;;7.80;;
60726;SDS011;46577;49.004;12.120;2023-04-08T01:57:46;13.27;;;7.67;;
60726;SDS011;46577;49.004;12.120;2023-04-08T02:00:15;13.77;;;8.07;;
60726;SDS011;46577;49.004;12.120;2023-04-08T02:02:44;10.40;;;7.20;;
60726;SDS011;46577;49.004;12.120;2023-04-08T02:05:11;13.00;;;7.83;;
60726;SDS011;46577;49.004;12.120;2023-04-08T02:07:37;14.90;;;8.60;;
60726;SDS011;46577;49.004;12.120;2023-04-08T02:10:03;11.03;;;6.63;;
60726;SDS011;46577;49.004;12.120;2023-04-08T02:12:29;11.40;;;6.80;;
60726;SDS011;46577;49.004;12.120;2023-04-08T02:14:56;11.37;;;7.50;;
60726;SDS011;46577;49.004;12.120;2023-04-08T02:20:06;9.43;;;6.63;;
60726;SDS011;46577;49.004;12.120;2023-04-08T02:22:47;11.07;;;7.43;;
60726;SDS011;46577;49.004;12.120;2023-04-08T02:25:32;11.40;;;6.73;;
60726;SDS011;46577;49.004;12.120;2023-04-08T02:28:01;10.57;;;6.57;;
60726;SDS011;46577;49.004;12.120;2023-04-08T02:30:30;12.63;;;6.83;;
60726;SDS011;46577;49.004;12.120;2023-04-08T02:32:56;11.13;;;7.17;;
60726;SDS011;46577;49.004;12.120;2023-04-08T02:35:23;11.63;;;6.73;;
60726;SDS011;46577;49.004;12.120;2023-04-08T02:37:50;9.57;;;7.00;;
60726;SDS011;46577;49.004;12.120;2023-04-08T02:40:31;11.07;;;7.20;;
60726;SDS011;46577;49.004;12.120;2023-04-08T02:42:57;11.40;;;6.90;;
60726;SDS011;46577;49.004;12.120;2023-04-08T02:45:27;12.33;;;7.10;;
60726;SDS011;46577;49.004;12.120;2023-04-08T02:47:55;14.43;;;7.17;;
60726;SDS011;46577;49.004;12.120;2023-04-08T02:50:21;11.00;;;6.50;;
60726;SDS011;46577;49.004;12.120;2023-04-08T02:52:47;14.60;;;7.70;;
60726;SDS011;46577;49.004;12.120;2023-04-08T02:55:13;11.40;;;7.23;;
60726;SDS011;46577;49.004;12.120;2023-04-08T02:57:39;15.40;;;8.63;;
60726;SDS011;46577;49.004;12.120;2023-04-08T03:00:06;12.50;;;7.53;;
60726;SDS011;46577;49.004;12.120;2023-04-08T03:02:33;12.50;;;7.60;;
60726;SDS011;46577;49.004;12.120;2023-04-08T03:04:58;11.50;;;7.80;;
60726;SDS011;46577;49.004;12.120;2023-04-08T03:07:24;17.50;;;8.00;;
60726;SDS011;46577;49.004;12.120;2023-04-08T03:09:50;14.80;;;7.20;;
60726;SDS011;46577;49.004;12.120;2023-04-08T03:12:15;11.80;;;7.80;;
60726;SDS011;46577;49.004;12.120;2023-04-08T03:14:41;11.87;;;7.70;;
60726;SDS011;46577;49.004;12.120;2023-04-08T03:17:07;13.60;;;7.67;;
60726;SDS011;46577;49.004;12.120;2023-04-08T03:19:32;17.17;;;7.17;;
60726;SDS011;46577;49.004;12.120;2023-04-08T03:21:58;11.03;;;7.27;;
60726;SDS011;46577;49.004;12.120;2023-04-08T03:24:24;12.43;;;7.20;;
60726;SDS011;46577;49.004;12.120;2023-04-08T03:26:50;13.93;;;6.90;;
60726;SDS011;46577;49.004;12.120;2023-04-08T03:29:15;12.30;;;8.07;;
60726;SDS011;46577;49.004;12.120;2023-04-08T03:31:41;10.53;;;7.40;;
60726;SDS011;46577;49.004;12.120;2023-04-08T03:34:06;15.30;;;8.00;;
60726;SDS011;46577;49.004;12.120;2023-04-08T03:36:32;15.03;;;7.20;;
60726;SDS011;46577;49.004;12.120;2023-04-08T03:38:58;13.47;;;7.40;;
60726;SDS011;46577;49.004;12.120;2023-04-08T03:41:23;16.60;;;8.63;;
60726;SDS011;46577;49.004;12.120;2023-04-08T03:43:49;10.83;;;7.70;;
60726;SDS011;46577;49.004;12.120;2023-04-08T03:46:15;15.77;;;8.33;;
60726;SDS011;46577;49.004;12.120;2023-04-08T03:48:40;12.73;;;7.47;;
60726;SDS011;46577;49.004;12.120;2023-04-08T03:51:06;14.03;;;8.60;;
60726;SDS011;46577;49.004;12.120;2023-04-08T03:53:32;13.90;;;7.57;;
60726;SDS011;46577;49.004;12.120;2023-04-08T03:55:57;13.63;;;8.60;;
60726;SDS011;46577;49.004;12.120;2023-04-08T03:58:23;14.13;;;8.53;;
60726;SDS011;46577;49.004;12.120;2023-04-08T04:00:49;11.20;;;7.70;;
60726;SDS011;46577;49.004;12.120;2023-04-08T04:03:15;14.17;;;7.63;;
60726;SDS011;46577;49.004;12.120;2023-04-08T04:05:41;12.13;;;8.47;;
60726;SDS011;46577;49.004;12.120;2023-04-08T04:08:06;16.50;;;8.30;;
60726;SDS011;46577;49.004;12.120;2023-04-08T04:10:33;17.60;;;8.97;;
60726;SDS011;46577;49.004;12.120;2023-04-08T04:12:59;12.30;;;7.50;;
60726;SDS011;46577;49.004;12.120;2023-04-08T04:15:25;11.13;;;7.13;;
60726;SDS011;46577;49.004;12.120;2023-04-08T04:17:51;15.63;;;8.80;;
60726;SDS011;46577;49.004;12.120;2023-04-08T04:20:17;14.23;;;8.20;;
60726;SDS011;46577;49.004;12.120;2023-04-08T04:22:43;21.50;;;8.37;;
60726;SDS011;46577;49.004;12.120;2023-04-08T04:25:09;20.30;;;9.17;;
60726;SDS011;46577;49.004;12.120;2023-04-08T04:27:35;16.30;;;9.07;;
60726;SDS011;46577;49.004;12.120;2023-04-08T04:30:01;14.93;;;9.40;;
60726;SDS011;46577;49.004;12.120;2023-04-08T04:32:28;14.07;;;8.27;;
60726;SDS011;46577;49.004;12.120;2023-04-08T04:34:53;13.30;;;8.10;;
60726;SDS011;46577;49.004;12.120;2023-04-08T04:37:19;15.00;;;8.20;;
60726;SDS011;46577;49.004;12.120;2023-04-08T04:39:44;15.17;;;8.70;;
60726;SDS011;46577;49.004;12.120;2023-04-08T04:42:10;18.67;;;8.73;;
60726;SDS011;46577;49.004;12.120;2023-04-08T04:44:36;12.97;;;8.40;;
60726;SDS011;46577;49.004;12.120;2023-04-08T04:47:01;16.50;;;8.83;;
60726;SDS011;46577;49.004;12.120;2023-04-08T04:49:27;17.03;;;8.83;;
60726;SDS011;46577;49.004;12.120;2023-04-08T04:51:53;14.63;;;8.77;;
60726;SDS011;46577;49.004;12.120;2023-04-08T04:54:18;11.00;;;7.60;;
60726;SDS011;46577;49.004;12.120;2023-04-08T04:56:44;15.57;;;7.80;;
60726;SDS011;46577;49.004;12.120;2023-04-08T04:59:10;14.40;;;9.03;;
60726;SDS011;46577;49.004;12.120;2023-04-08T05:01:36;13.70;;;8.03;;
60726;SDS011;46577;49.004;12.120;2023-04-08T05:04:02;14.57;;;8.50;;
60726;SDS011;46577;49.004;12.120;2023-04-08T05:06:27;17.10;;;8.60;;
60726;SDS011;46577;49.004;12.120;2023-04-08T05:08:53;15.93;;;8.50;;
60726;SDS011;46577;49.004;12.120;2023-04-08T05:11:19;14.53;;;7.87;;
60726;SDS011;46577;49.004;12.120;2023-04-08T05:13:46;16.60;;;8.13;;
60726;SDS011;46577;49.004;12.120;2023-04-08T05:16:11;12.00;;;7.83;;
60726;SDS011;46577;49.004;12.120;2023-04-08T05:18:37;19.40;;;8.47;;
60726;SDS011;46577;49.004;12.120;2023-04-08T05:21:03;20.40;;;10.57;;
60726;SDS011;46577;49.004;12.120;2023-04-08T05:23:29;14.60;;;9.20;;
60726;SDS011;46577;49.004;12.120;2023-04-08T05:25:54;11.67;;;7.90;;
60726;SDS011;46577;49.004;12.120;2023-04-08T05:28:21;12.13;;;8.50;;
60726;SDS011;46577;49.004;12.120;2023-04-08T05:30:50;17.60;;;8.17;;
60726;SDS011;46577;49.004;12.120;2023-04-08T05:33:16;14.10;;;8.40;;
60726;SDS011;46577;49.004;12.120;2023-04-08T05:35:42;11.93;;;8.20;;
60726;SDS011;46577;49.004;12.120;2023-04-08T05:38:08;14.70;;;8.40;;
60726;SDS011;46577;49.004;12.120;2023-04-08T05:40:34;13.77;;;9.43;;
60726;SDS011;46577;49.004;12.120;2023-04-08T05:43:00;16.33;;;8.40;;
60726;SDS011;46577;49.004;12.120;2023-04-08T05:45:26;15.40;;;8.50;;
60726;SDS011;46577;49.004;12.120;2023-04-08T05:47:54;14.90;;;8.67;;
60726;SDS011;46577;49.004;12.120;2023-04-08T05:50:19;13.90;;;8.90;;
60726;SDS011;46577;49.004;12.120;2023-04-08T05:52:45;16.67;;;7.90;;
60726;SDS011;46577;49.004;12.120;2023-04-08T05:55:11;15.23;;;8.50;;
60726;SDS011;46577;49.004;12.120;2023-04-08T05:57:38;14.07;;;8.93;;
60726;SDS011;46577;49.004;12.120;2023-04-08T06:00:04;11.83;;;8.40;;
60726;SDS011;46577;49.004;12.120;2023-04-08T06:02:32;13.47;;;10.43;;
60726;SDS011;46577;49.004;12.120;2023-04-08T06:04:58;13.13;;;8.77;;
60726;SDS011;46577;49.004;12.120;2023-04-08T06:07:23;13.83;;;8.03;;
60726;SDS011;46577;49.004;12.120;2023-04-08T06:09:49;14.90;;;9.07;;
60726;SDS011;46577;49.004;12.120;2023-04-08T06:12:15;13.13;;;8.63;;
60726;SDS011;46577;49.004;12.120;2023-04-08T06:14:40;12.00;;;8.77;;
60726;SDS011;46577;49.004;12.120;2023-04-08T06:17:06;11.13;;;7.10;;
60726;SDS011;46577;49.004;12.120;2023-04-08T06:19:31;12.80;;;8.60;;
60726;SDS011;46577;49.004;12.120;2023-04-08T06:21:57;14.70;;;8.33;;
60726;SDS011;46577;49.004;12.120;2023-04-08T06:24:24;16.27;;;9.70;;
60726;SDS011;46577;49.004;12.120;2023-04-08T06:26:51;13.17;;;8.93;;
60726;SDS011;46577;49.004;12.120;2023-04-08T06:29:17;13.90;;;10.50;;
60726;SDS011;46577;49.004;12.120;2023-04-08T06:31:43;14.27;;;9.63;;
60726;SDS011;46577;49.004;12.120;2023-04-08T06:34:09;16.13;;;10.13;;
60726;SDS011;46577;49.004;12.120;2023-04-08T06:36:35;20.30;;;10.30;;
60726;SDS011;46577;49.004;12.120;2023-04-08T06:39:01;20.20;;;10.90;;
60726;SDS011;46577;49.004;12.120;2023-04-08T06:41:28;15.33;;;10.40;;
60726;SDS011;46577;49.004;12.120;2023-04-08T06:43:53;17.77;;;11.00;;
60726;SDS011;46577;49.004;12.120;2023-04-08T06:46:19;13.40;;;10.20;;
60726;SDS011;46577;49.004;12.120;2023-04-08T06:48:44;20.27;;;9.97;;
60726;SDS011;46577;49.004;12.120;2023-04-08T06:51:10;13.90;;;9.97;;
60726;SDS011;46577;49.004;12.120;2023-04-08T06:53:36;15.27;;;10.47;;
60726;SDS011;46577;49.004;12.120;2023-04-08T06:56:01;17.30;;;11.50;;
60726;SDS011;46577;49.004;12.120;2023-04-08T06:58:27;19.37;;;11.37;;
60726;SDS011;46577;49.004;12.120;2023-04-08T07:00:53;15.83;;;9.87;;
60726;SDS011;46577;49.004;12.120;2023-04-08T07:03:20;15.60;;;10.27;;
60726;SDS011;46577;49.004;12.120;2023-04-08T07:05:46;16.87;;;10.07;;
60726;SDS011;46577;49.004;12.120;2023-04-08T07:08:12;15.80;;;10.23;;
60726;SDS011;46577;49.004;12.120;2023-04-08T07:10:38;17.23;;;10.53;;
60726;SDS011;46577;49.004;12.120;2023-04-08T07:13:03;13.70;;;8.73;;
60726;SDS011;46577;49.004;12.120;2023-04-08T07:15:29;13.33;;;10.07;;
60726;SDS011;46577;49.004;12.120;2023-04-08T07:17:55;15.83;;;10.30;;
60726;SDS011;46577;49.004;12.120;2023-04-08T07:20:21;13.43;;;9.00;;
60726;SDS011;46577;49.004;12.120;2023-04-08T07:22:47;17.93;;;11.40;;
60726;SDS011;46577;49.004;12.120;2023-04-08T07:25:13;12.07;;;9.27;;
60726;SDS011;46577;49.004;12.120;2023-04-08T07:27:39;14.40;;;9.70;;
60726;SDS011;46577;49.004;12.120;2023-04-08T07:30:05;22.47;;;11.27;;
60726;SDS011;46577;49.004;12.120;2023-04-08T07:32:31;16.37;;;10.17;;
60726;SDS011;46577;49.004;12.120;2023-04-08T07:34:58;13.50;;;10.37;;
60726;SDS011;46577;49.004;12.120;2023-04-08T07:37:25;12.70;;;8.77;;
60726;SDS011;46577;49.004;12.120;2023-04-08T07:39:53;13.07;;;8.37;;
60726;SDS011;46577;49.004;12.120;2023-04-08T07:42:19;12.10;;;8.63;;
60726;SDS011;46577;49.004;12.120;2023-04-08T07:44:44;11.57;;;8.30;;
60726;SDS011;46577;49.004;12.120;2023-04-08T07:47:10;15.87;;;9.27;;
60726;SDS011;46577;49.004;12.120;2023-04-08T07:49:36;12.30;;;8.80;;
60726;SDS011;46577;49.004;12.120;2023-04-08T07:52:02;13.10;;;8.77;;
60726;SDS011;46577;49.004;12.120;2023-04-08T07:54:32;10.60;;;7.23;;
60726;SDS011;46577;49.004;12.120;2023-04-08T07:57:00;12.67;;;8.73;;
60726;SDS011;46577;49.004;12.120;2023-04-08T07:59:26;7.80;;;6.60;;
60726;SDS011;46577;49.004;12.120;2023-04-08T08:01:53;11.30;;;8.30;;
60726;SDS011;46577;49.004;12.120;2023-04-08T08:04:18;11.17;;;7.60;;
60726;SDS011;46577;49.004;12.120;2023-04-08T08:06:45;11.77;;;8.17;;
60726;SDS011;46577;49.004;12.120;2023-04-08T08:09:11;11.53;;;7.53;;
60726;SDS011;46577;49.004;12.120;2023-04-08T08:11:37;9.10;;;7.50;;
60726;SDS011;46577;49.004;12.120;2023-04-08T08:14:03;12.50;;;7.83;;
60726;SDS011;46577;49.004;12.120;2023-04-08T08:16:29;9.60;;;7.50;;
60726;SDS011;46577;49.004;12.120;2023-04-08T08:18:56;12.23;;;7.90;;
60726;SDS011;46577;49.004;12.120;2023-04-08T08:21:22;9.90;;;6.90;;
60726;SDS011;46577;49.004;12.120;2023-04-08T08:23:48;8.77;;;6.80;;
60726;SDS011;46577;49.004;12.120;2023-04-08T08:26:16;8.87;;;6.50;;
60726;SDS011;46577;49.004;12.120;2023-04-08T08:28:41;12.67;;;8.47;;
60726;SDS011;46577;49.004;12.120;2023-04-08T08:31:07;10.20;;;7.47;;
60726;SDS011;46577;49.004;12.120;2023-04-08T08:33:33;12.90;;;7.50;;
60726;SDS011;46577;49.004;12.120;2023-04-08T08:35:58;10.70;;;7.97;;
60726;SDS011;46577;49.004;12.120;2023-04-08T08:38:24;10.07;;;6.83;;
60726;SDS011;46577;49.004;12.120;2023-04-08T08:40:54;12.73;;;8.20;;
60726;SDS011;46577;49.004;12.120;2023-04-08T08:43:21;10.13;;;7.93;;
60726;SDS011;46577;49.004;12.120;2023-04-08T08:45:50;10.10;;;8.03;;
60726;SDS011;46577;49.004;12.120;2023-04-08T08:48:16;9.37;;;6.70;;
60726;SDS011;46577;49.004;12.120;2023-04-08T08:50:42;9.60;;;6.90;;
60726;SDS011;46577;49.004;12.120;2023-04-08T08:53:08;11.27;;;7.57;;
60726;SDS011;46577;49.004;12.120;2023-04-08T08:55:33;9.90;;;7.47;;
60726;SDS011;46577;49.004;12.120;2023-04-08T08:57:59;11.20;;;7.77;;
60726;SDS011;46577;49.004;12.120;2023-04-08T09:03:14;11.30;;;8.20;;
60726;SDS011;46577;49.004;12.120;2023-04-08T09:08:22;7.67;;;6.80;;
60726;SDS011;46577;49.004;12.120;2023-04-08T09:11:19;17.83;;;8.50;;
60726;SDS011;46577;49.004;12.120;2023-04-08T09:13:47;11.80;;;8.70;;
60726;SDS011;46577;49.004;12.120;2023-04-08T09:16:14;15.90;;;9.67;;
60726;SDS011;46577;49.004;12.120;2023-04-08T09:18:44;12.70;;;9.10;;
60726;SDS011;46577;49.004;12.120;2023-04-08T09:21:11;20.10;;;8.60;;
60726;SDS011;46577;49.004;12.120;2023-04-08T09:23:50;12.83;;;7.60;;
60726;SDS011;46577;49.004;12.120;2023-04-08T09:26:17;9.27;;;6.20;;
60726;SDS011;46577;49.004;12.120;2023-04-08T09:29:00;15.53;;;9.97;;
60726;SDS011;46577;49.004;12.120;2023-04-08T09:31:31;14.77;;;8.70;;
60726;SDS011;46577;49.004;12.120;2023-04-08T09:33:59;12.80;;;8.87;;
60726;SDS011;46577;49.004;12.120;2023-04-08T09:36:28;12.37;;;8.30;;
60726;SDS011;46577;49.004;12.120;2023-04-08T09:38:54;13.60;;;8.97;;
60726;SDS011;46577;49.004;12.120;2023-04-08T09:41:20;13.17;;;8.20;;
60726;SDS011;46577;49.004;12.120;2023-04-08T09:43:48;10.97;;;8.20;;
60726;SDS011;46577;49.004;12.120;2023-04-08T09:49:37;11.60;;;8.27;;
60726;SDS011;46577;49.004;12.120;2023-04-08T09:52:24;16.30;;;9.40;;
60726;SDS011;46577;49.004;12.120;2023-04-08T09:55:04;15.67;;;10.30;;
60726;SDS011;46577;49.004;12.120;2023-04-08T10:00:10;13.40;;;7.83;;
60726;SDS011;46577;49.004;12.120;2023-04-08T10:02:40;14.83;;;8.07;;
60726;SDS011;46577;49.004;12.120;2023-04-08T10:05:11;10.37;;;7.33;;
60726;SDS011;46577;49.004;12.120;2023-04-08T10:07:38;14.33;;;7.40;;
60726;SDS011;46577;49.004;12.120;2023-04-08T10:10:05;10.67;;;7.10;;
60726;SDS011;46577;49.004;12.120;2023-04-08T10:12:33;10.50;;;7.47;;
60726;SDS011;46577;49.004;12.120;2023-04-08T10:23:03;12.27;;;6.80;;
60726;SDS011;46577;49.004;12.120;2023-04-08T10:25:34;13.30;;;7.37;;
60726;SDS011;46577;49.004;12.120;2023-04-08T10:28:01;12.70;;;8.13;;
60726;SDS011;46577;49.004;12.120;2023-04-08T10:30:42;12.13;;;7.20;;
60726;SDS011;46577;49.004;12.120;2023-04-08T10:33:14;9.80;;;6.90;;
60726;SDS011;46577;49.004;12.120;2023-04-08T10:35:41;12.13;;;7.67;;
60726;SDS011;46577;49.004;12.120;2023-04-08T10:38:10;11.17;;;8.10;;
60726;SDS011;46577;49.004;12.120;2023-04-08T10:40:37;10.87;;;8.10;;
60726;SDS011;46577;49.004;12.120;2023-04-08T10:43:05;11.73;;;8.10;;
60726;SDS011;46577;49.004;12.120;2023-04-08T10:45:32;15.30;;;8.03;;
60726;SDS011;46577;49.004;12.120;2023-04-08T10:50:40;14.23;;;7.80;;
60726;SDS011;46577;49.004;12.120;2023-04-08T10:53:06;9.70;;;7.03;;
60726;SDS011;46577;49.004;12.120;2023-04-08T10:55:32;10.40;;;7.60;;
60726;SDS011;46577;49.004;12.120;2023-04-08T10:58:05;11.63;;;7.03;;
60726;SDS011;46577;49.004;12.120;2023-04-08T11:03:07;14.23;;;6.90;;
60726;SDS011;46577;49.004;12.120;2023-04-08T11:05:35;8.50;;;6.97;;
60726;SDS011;46577;49.004;12.120;2023-04-08T11:08:02;10.07;;;6.70;;
60726;SDS011;46577;49.004;12.120;2023-04-08T11:10:29;9.00;;;6.90;;
60726;SDS011;46577;49.004;12.120;2023-04-08T11:12:56;10.17;;;6.17;;
60726;SDS011;46577;49.004;12.120;2023-04-08T11:15:25;9.30;;;6.67;;
60726;SDS011;46577;49.004;12.120;2023-04-08T11:17:52;9.00;;;7.43;;
60726;SDS011;46577;49.004;12.120;2023-04-08T11:20:19;11.47;;;7.40;;
60726;SDS011;46577;49.004;12.120;2023-04-08T11:22:46;14.40;;;7.07;;
60726;SDS011;46577;49.004;12.120;2023-04-08T11:25:11;7.27;;;6.27;;
60726;SDS011;46577;49.004;12.120;2023-04-08T11:27:38;11.30;;;6.23;;
60726;SDS011;46577;49.004;12.120;2023-04-08T11:30:05;8.37;;;5.47;;
60726;SDS011;46577;49.004;12.120;2023-04-08T11:32:33;9.53;;;6.97;;
60726;SDS011;46577;49.004;12.120;2023-04-08T11:35:00;11.10;;;6.10;;
60726;SDS011;46577;49.004;12.120;2023-04-08T11:37:26;10.67;;;6.70;;
60726;SDS011;46577;49.004;12.120;2023-04-08T11:40:05;13.53;;;6.40;;
60726;SDS011;46577;49.004;12.120;2023-04-08T11:42:31;12.03;;;7.17;;
60726;SDS011;46577;49.004;12.120;2023-04-08T11:44:57;10.23;;;5.53;;
60726;SDS011;46577;49.004;12.120;2023-04-08T11:47:32;10.20;;;6.50;;
60726;SDS011;46577;49.004;12.120;2023-04-08T11:49:59;10.47;;;6.40;;
60726;SDS011;46577;49.004;12.120;2023-04-08T11:55:31;6.63;;;5.57;;
60726;SDS011;46577;49.004;12.120;2023-04-08T11:58:01;8.73;;;5.30;;
60726;SDS011;46577;49.004;12.120;2023-04-08T12:00:28;7.37;;;6.10;;
60726;SDS011;46577;49.004;12.120;2023-04-08T12:02:55;8.93;;;5.77;;
60726;SDS011;46577;49.004;12.120;2023-04-08T12:05:20;17.77;;;11.57;;
60726;SDS011;46577;49.004;12.120;2023-04-08T12:07:46;22.30;;;17.17;;
60726;SDS011;46577;49.004;12.120;2023-04-08T12:10:12;12.60;;;6.10;;
60726;SDS011;46577;49.004;12.120;2023-04-08T12:12:38;10.93;;;6.77;;
60726;SDS011;46577;49.004;12.120;2023-04-08T12:15:04;6.63;;;5.90;;
60726;SDS011;46577;49.004;12.120;2023-04-08T12:17:31;9.37;;;5.90;;
60726;SDS011;46577;49.004;12.120;2023-04-08T12:19:57;8.73;;;5.57;;
60726;SDS011;46577;49.004;12.120;2023-04-08T12:22:23;8.20;;;5.73;;
60726;SDS011;46577;49.004;12.120;2023-04-08T12:24:49;6.47;;;5.20;;
60726;SDS011;46577;49.004;12.120;2023-04-08T12:27:15;6.30;;;5.13;;
60726;SDS011;46577;49.004;12.120;2023-04-08T12:29:40;5.50;;;4.53;;
60726;SDS011;46577;49.004;12.120;2023-04-08T12:32:07;6.20;;;5.07;;
60726;SDS011;46577;49.004;12.120;2023-04-08T12:34:33;5.57;;;4.57;;
60726;SDS011;46577;49.004;12.120;2023-04-08T12:36:58;8.50;;;5.63;;
60726;SDS011;46577;49.004;12.120;2023-04-08T12:39:24;6.00;;;4.40;;
60726;SDS011;46577;49.004;12.120;2023-04-08T12:41:50;8.47;;;5.37;;
60726;SDS011;46577;49.004;12.120;2023-04-08T12:44:15;13.13;;;4.87;;
60726;SDS011;46577;49.004;12.120;2023-04-08T12:46:41;5.17;;;4.60;;
60726;SDS011;46577;49.004;12.120;2023-04-08T12:49:07;6.07;;;4.60;;
60726;SDS011;46577;49.004;12.120;2023-04-08T12:51:33;6.03;;;5.00;;
60726;SDS011;46577;49.004;12.120;2023-04-08T12:53:59;5.97;;;5.00;;
60726;SDS011;46577;49.004;12.120;2023-04-08T12:56:27;6.43;;;5.47;;
60726;SDS011;46577;49.004;12.120;2023-04-08T12:58:53;5.60;;;5.10;;
60726;SDS011;46577;49.004;12.120;2023-04-08T13:01:19;6.73;;;5.03;;
60726;SDS011;46577;49.004;12.120;2023-04-08T13:03:45;10.37;;;5.13;;
60726;SDS011;46577;49.004;12.120;2023-04-08T13:06:12;6.07;;;4.33;;
60726;SDS011;46577;49.004;12.120;2023-04-08T13:08:37;5.70;;;4.37;;
60726;SDS011;46577;49.004;12.120;2023-04-08T13:11:03;5.13;;;4.60;;
60726;SDS011;46577;49.004;12.120;2023-04-08T13:13:29;5.63;;;4.20;;
60726;SDS011;46577;49.004;12.120;2023-04-08T13:15:54;5.23;;;4.40;;
60726;SDS011;46577;49.004;12.120;2023-04-08T13:18:20;5.77;;;4.00;;
60726;SDS011;46577;49.004;12.120;2023-04-08T13:20:46;6.10;;;4.70;;
60726;SDS011;46577;49.004;12.120;2023-04-08T13:23:12;6.73;;;4.73;;
60726;SDS011;46577;49.004;12.120;2023-04-08T13:25:39;4.67;;;4.00;;
60726;SDS011;46577;49.004;12.120;2023-04-08T13:28:05;5.67;;;4.57;;
60726;SDS011;46577;49.004;12.120;2023-04-08T13:30:30;4.73;;;4.17;;
60726;SDS011;46577;49.004;12.120;2023-04-08T13:32:56;6.53;;;5.27;;
60726;SDS011;46577;49.004;12.120;2023-04-08T13:35:21;6.67;;;3.67;;
60726;SDS011;46577;49.004;12.120;2023-04-08T13:37:47;4.33;;;3.93;;
60726;SDS011;46577;49.004;12.120;2023-04-08T13:40:13;4.70;;;3.67;;
60726;SDS011;46577;49.004;12.120;2023-04-08T13:42:38;4.87;;;3.90;;
60726;SDS011;46577;49.004;12.120;2023-04-08T13:45:04;6.27;;;3.50;;
60726;SDS011;46577;49.004;12.120;2023-04-08T13:47:30;4.73;;;3.60;;
60726;SDS011;46577;49.004;12.120;2023-04-08T13:49:56;4.10;;;3.23;;
60726;SDS011;46577;49.004;12.120;2023-04-08T13:52:21;9.13;;;3.60;;
60726;SDS011;46577;49.004;12.120;2023-04-08T13:54:47;4.40;;;3.00;;
60726;SDS011;46577;49.004;12.120;2023-04-08T13:57:12;4.13;;;3.73;;
60726;SDS011;46577;49.004;12.120;2023-04-08T13:59:38;4.43;;;3.60;;
60726;SDS011;46577;49.004;12.120;2023-04-08T14:02:04;5.40;;;4.47;;
60726;SDS011;46577;49.004;12.120;2023-04-08T14:04:30;10.90;;;3.80;;
60726;SDS011;46577;49.004;12.120;2023-04-08T14:06:56;6.10;;;4.10;;
60726;SDS011;46577;49.004;12.120;2023-04-08T14:09:22;7.40;;;4.10;;
60726;SDS011;46577;49.004;12.120;2023-04-08T14:11:48;6.00;;;4.30;;
60726;SDS011;46577;49.004;12.120;2023-04-08T14:14:14;5.00;;;3.77;;
60726;SDS011;46577;49.004;12.120;2023-04-08T14:16:40;5.40;;;4.00;;
60726;SDS011;46577;49.004;12.120;2023-04-08T14:19:06;8.40;;;4.47;;
60726;SDS011;46577;49.004;12.120;2023-04-08T14:21:32;7.10;;;4.30;;
60726;SDS011;46577;49.004;12.120;2023-04-08T14:23:57;6.30;;;4.80;;
60726;SDS011;46577;49.004;12.120;2023-04-08T14:26:23;5.70;;;4.10;;
60726;SDS011;46577;49.004;12.120;2023-04-08T14:28:49;6.80;;;4.67;;
60726;SDS011;46577;49.004;12.120;2023-04-08T14:31:15;6.50;;;4.83;;
60726;SDS011;46577;49.004;12.120;2023-04-08T14:33:41;6.17;;;4.83;;
60726;SDS011;46577;49.004;12.120;2023-04-08T14:36:07;6.23;;;4.47;;
60726;SDS011;46577;49.004;12.120;2023-04-08T14:38:33;6.20;;;4.77;;
60726;SDS011;46577;49.004;12.120;2023-04-08T14:40:59;8.80;;;5.13;;
60726;SDS011;46577;49.004;12.120;2023-04-08T14:43:25;7.60;;;4.67;;
60726;SDS011;46577;49.004;12.120;2023-04-08T14:45:50;7.63;;;5.20;;
60726;SDS011;46577;49.004;12.120;2023-04-08T14:48:16;6.43;;;4.63;;
60726;SDS011;46577;49.004;12.120;2023-04-08T14:50:42;5.93;;;4.20;;
60726;SDS011;46577;49.004;12.120;2023-04-08T14:53:08;5.83;;;4.93;;
60726;SDS011;46577;49.004;12.120;2023-04-08T14:55:33;5.00;;;4.00;;
60726;SDS011;46577;49.004;12.120;2023-04-08T14:57:59;5.00;;;4.50;;
60726;SDS011;46577;49.004;12.120;2023-04-08T15:00:25;8.00;;;4.80;;